sensor_id;sensor_type;location;lat;lon;timestamp;pressure;altitude;pressure_sealevel;temperature;humidity
12799;BME280;19250;42.646;26.980;2023-05-19T00:01:58;98725.47;;;17.21;100.00
12799;BME280;19250;42.646;26.980;2023-05-19T00:04:26;98727.53;;;17.26;100.00
12799;BME280;19250;42.646;26.980;2023-05-19T00:06:53;98725.44;;;17.28;100.00
12799;BME280;19250;42.646;26.980;2023-05-19T00:09:20;98719.63;;;17.31;100.00
12799;BME280;19250;42.646;26.980;2023-05-19T00:11:48;98734.56;;;17.40;100.00
12799;BME280;19250;42.646;26.980;2023-05-19T00:14:15;98730.22;;;17.19;100.00
12799;BME280;19250;42.646;26.980;2023-05-19T00:16:42;98720.69;;;17.36;100.00
12799;BME280;19250;42.646;26.980;2023-05-19T00:19:11;98728.56;;;17.31;100.00
12799;BME280;19250;42.646;26.980;2023-05-19T00:21:37;98719.88;;;17.29;100.00
12799;BME280;19250;42.646;26.980;2023-05-19T00:24:05;98726.69;;;17.25;100.00
12799;BME280;19250;42.646;26.980;2023-05-19T00:26:32;98722.13;;;17.26;100.00
12799;BME280;19250;42.646;26.980;2023-05-19T00:28:59;98718.00;;;17.23;100.00
12799;BME280;19250;42.646;26.980;2023-05-19T00:31:25;98713.22;;;17.32;100.00
12799;BME280;19250;42.646;26.980;2023-05-19T00:33:52;98714.28;;;17.24;100.00
12799;BME280;19250;42.646;26.980;2023-05-19T00:36:20;98722.97;;;17.26;100.00
12799;BME280;19250;42.646;26.980;2023-05-19T00:38:47;98723.81;;;17.33;100.00
12799;BME280;19250;42.646;26.980;2023-05-19T00:41:15;98719.66;;;17.24;100.00
12799;BME280;19250;42.646;26.980;2023-05-19T00:43:42;98720.28;;;17.20;100.00
12799;BME280;19250;42.646;26.980;2023-05-19T00:46:09;98711.78;;;17.16;100.00
12799;BME280;19250;42.646;26.980;2023-05-19T00:48:36;98718.41;;;17.14;100.00
12799;BME280;19250;42.646;26.980;2023-05-19T00:51:03;98717.56;;;17.13;100.00
12799;BME280;19250;42.646;26.980;2023-05-19T00:53:32;98733.34;;;17.29;100.00
12799;BME280;19250;42.646;26.980;2023-05-19T00:55:59;98726.06;;;17.10;100.00
12799;BME280;19250;42.646;26.980;2023-05-19T00:58:26;98731.69;;;17.02;100.00
12799;BME280;19250;42.646;26.980;2023-05-19T01:00:55;98739.72;;;16.89;100.00
12799;BME280;19250;42.646;26.980;2023-05-19T01:03:27;98727.72;;;16.98;100.00
12799;BME280;19250;42.646;26.980;2023-05-19T01:05:55;98735.38;;;16.88;100.00
12799;BME280;19250;42.646;26.980;2023-05-19T01:08:22;98733.72;;;16.80;100.00
12799;BME280;19250;42.646;26.980;2023-05-19T01:10:50;98728.94;;;16.69;100.00
12799;BME280;19250;42.646;26.980;2023-05-19T01:13:17;98731.41;;;16.64;100.00
12799;BME280;19250;42.646;26.980;2023-05-19T01:15:48;98731.22;;;16.72;100.00
12799;BME280;19250;42.646;26.980;2023-05-19T01:18:22;98731.63;;;16.63;100.00
12799;BME280;19250;42.646;26.980;2023-05-19T01:20:55;98737.66;;;16.78;100.00
12799;BME280;19250;42.646;26.980;2023-05-19T01:23:27;98737.03;;;16.82;100.00
12799;BME280;19250;42.646;26.980;2023-05-19T01:26:10;98740.75;;;16.75;100.00
12799;BME280;19250;42.646;26.980;2023-05-19T01:31:26;98748.63;;;16.83;100.00
12799;BME280;19250;42.646;26.980;2023-05-19T01:33:53;98739.91;;;16.68;100.00
12799;BME280;19250;42.646;26.980;2023-05-19T01:36:21;98745.50;;;16.66;100.00
12799;BME280;19250;42.646;26.980;2023-05-19T01:38:48;98751.69;;;16.67;100.00
12799;BME280;19250;42.646;26.980;2023-05-19T01:41:16;98754.84;;;16.77;100.00
12799;BME280;19250;42.646;26.980;2023-05-19T01:43:44;98761.88;;;16.71;100.00
12799;BME280;19250;42.646;26.980;2023-05-19T01:46:11;98762.72;;;16.85;100.00
12799;BME280;19250;42.646;26.980;2023-05-19T01:48:40;98758.59;;;16.89;100.00
12799;BME280;19250;42.646;26.980;2023-05-19T01:51:07;98762.56;;;17.00;100.00
12799;BME280;19250;42.646;26.980;2023-05-19T01:53:33;98767.28;;;16.98;100.00
12799;BME280;19250;42.646;26.980;2023-05-19T01:56:00;98770.84;;;17.11;100.00
12799;BME280;19250;42.646;26.980;2023-05-19T01:58:30;98766.66;;;16.82;100.00
12799;BME280;19250;42.646;26.980;2023-05-19T02:01:02;98770.16;;;16.63;100.00
12799;BME280;19250;42.646;26.980;2023-05-19T02:03:35;98770.19;;;16.90;100.00
12799;BME280;19250;42.646;26.980;2023-05-19T02:06:09;98775.56;;;16.83;100.00
12799;BME280;19250;42.646;26.980;2023-05-19T02:08:40;98777.00;;;16.79;100.00
12799;BME280;19250;42.646;26.980;2023-05-19T02:11:09;98781.19;;;17.01;100.00
12799;BME280;19250;42.646;26.980;2023-05-19T02:13:40;98783.63;;;16.76;100.00
12799;BME280;19250;42.646;26.980;2023-05-19T02:16:09;98784.69;;;16.95;100.00
12799;BME280;19250;42.646;26.980;2023-05-19T02:18:36;98787.63;;;16.94;100.00
12799;BME280;19250;42.646;26.980;2023-05-19T02:21:03;98791.78;;;17.09;100.00
12799;BME280;19250;42.646;26.980;2023-05-19T02:23:31;98796.31;;;17.02;100.00
12799;BME280;19250;42.646;26.980;2023-05-19T02:25:58;98796.50;;;16.94;100.00
12799;BME280;19250;42.646;26.980;2023-05-19T02:28:25;98798.81;;;17.04;100.00
12799;BME280;19250;42.646;26.980;2023-05-19T02:30:52;98800.06;;;17.14;100.00
12799;BME280;19250;42.646;26.980;2023-05-19T02:33:19;98800.03;;;17.01;100.00
12799;BME280;19250;42.646;26.980;2023-05-19T02:35:48;98800.88;;;16.95;100.00
12799;BME280;19250;42.646;26.980;2023-05-19T02:38:15;98798.78;;;16.97;100.00
12799;BME280;19250;42.646;26.980;2023-05-19T02:40:43;98803.56;;;16.95;100.00
12799;BME280;19250;42.646;26.980;2023-05-19T02:43:10;98807.06;;;16.89;100.00
12799;BME280;19250;42.646;26.980;2023-05-19T02:45:37;98800.81;;;16.82;100.00
12799;BME280;19250;42.646;26.980;2023-05-19T02:48:04;98806.84;;;16.84;100.00
12799;BME280;19250;42.646;26.980;2023-05-19T02:50:31;98807.91;;;16.36;100.00
12799;BME280;19250;42.646;26.980;2023-05-19T02:52:58;98808.72;;;16.43;100.00
12799;BME280;19250;42.646;26.980;2023-05-19T02:55:25;98803.16;;;16.44;100.00
12799;BME280;19250;42.646;26.980;2023-05-19T02:57:53;98806.59;;;16.25;100.00
12799;BME280;19250;42.646;26.980;2023-05-19T03:00:20;98807.09;;;16.42;100.00
12799;BME280;19250;42.646;26.980;2023-05-19T03:02:47;98824.00;;;16.63;100.00
12799;BME280;19250;42.646;26.980;2023-05-19T03:05:14;98812.13;;;16.58;100.00
12799;BME280;19250;42.646;26.980;2023-05-19T03:07:41;98821.56;;;16.88;100.00
12799;BME280;19250;42.646;26.980;2023-05-19T03:10:08;98817.22;;;16.87;100.00
12799;BME280;19250;42.646;26.980;2023-05-19T03:12:34;98818.47;;;16.84;100.00
12799;BME280;19250;42.646;26.980;2023-05-19T03:15:03;98824.00;;;16.70;100.00
12799;BME280;19250;42.646;26.980;2023-05-19T03:17:31;98830.41;;;16.62;100.00
12799;BME280;19250;42.646;26.980;2023-05-19T03:19:59;98826.53;;;16.78;100.00
12799;BME280;19250;42.646;26.980;2023-05-19T03:22:26;98823.84;;;16.84;100.00
12799;BME280;19250;42.646;26.980;2023-05-19T03:24:53;98832.47;;;16.60;100.00
12799;BME280;19250;42.646;26.980;2023-05-19T03:27:20;98841.25;;;16.41;100.00
12799;BME280;19250;42.646;26.980;2023-05-19T03:29:46;98842.84;;;16.70;100.00
12799;BME280;19250;42.646;26.980;2023-05-19T03:32:15;98840.53;;;16.60;100.00
12799;BME280;19250;42.646;26.980;2023-05-19T03:34:42;98840.94;;;16.64;100.00
12799;BME280;19250;42.646;26.980;2023-05-19T03:37:08;98843.34;;;16.52;100.00
12799;BME280;19250;42.646;26.980;2023-05-19T03:39:37;98846.72;;;16.61;100.00
12799;BME280;19250;42.646;26.980;2023-05-19T03:42:04;98855.91;;;16.73;100.00
12799;BME280;19250;42.646;26.980;2023-05-19T03:44:31;98849.94;;;16.84;100.00
12799;BME280;19250;42.646;26.980;2023-05-19T03:46:57;98856.06;;;16.65;100.00
12799;BME280;19250;42.646;26.980;2023-05-19T03:49:26;98859.31;;;16.54;100.00
12799;BME280;19250;42.646;26.980;2023-05-19T03:51:53;98853.94;;;16.54;100.00
12799;BME280;19250;42.646;26.980;2023-05-19T03:54:20;98850.75;;;16.37;100.00
12799;BME280;19250;42.646;26.980;2023-05-19T03:56:47;98849.31;;;16.41;100.00
12799;BME280;19250;42.646;26.980;2023-05-19T03:59:14;98855.75;;;16.47;100.00
12799;BME280;19250;42.646;26.980;2023-05-19T04:01:40;98862.47;;;16.64;100.00
12799;BME280;19250;42.646;26.980;2023-05-19T04:04:07;98856.25;;;16.57;100.00
12799;BME280;19250;42.646;26.980;2023-05-19T04:06:36;98856.69;;;16.67;100.00
12799;BME280;19250;42.646;26.980;2023-05-19T04:09:02;98857.97;;;16.71;100.00
12799;BME280;19250;42.646;26.980;2023-05-19T04:11:36;98862.50;;;16.70;100.00
12799;BME280;19250;42.646;26.980;2023-05-19T04:14:03;98848.00;;;16.65;100.00
12799;BME280;19250;42.646;26.980;2023-05-19T04:16:30;98859.44;;;16.73;100.00
12799;BME280;19250;42.646;26.980;2023-05-19T04:18:57;98862.19;;;16.93;100.00
12799;BME280;19250;42.646;26.980;2023-05-19T04:21:24;98855.63;;;17.22;100.00
12799;BME280;19250;42.646;26.980;2023-05-19T04:23:53;98865.59;;;17.21;100.00
12799;BME280;19250;42.646;26.980;2023-05-19T04:26:19;98860.59;;;17.12;100.00
12799;BME280;19250;42.646;26.980;2023-05-19T04:28:49;98857.22;;;17.03;100.00
12799;BME280;19250;42.646;26.980;2023-05-19T04:31:16;98859.59;;;17.32;100.00
12799;BME280;19250;42.646;26.980;2023-05-19T04:33:45;98858.16;;;17.36;100.00
12799;BME280;19250;42.646;26.980;2023-05-19T04:36:12;98854.22;;;17.46;100.00
12799;BME280;19250;42.646;26.980;2023-05-19T04:38:41;98859.66;;;17.72;100.00
12799;BME280;19250;42.646;26.980;2023-05-19T04:41:11;98851.97;;;17.69;100.00
12799;BME280;19250;42.646;26.980;2023-05-19T04:43:40;98859.44;;;17.60;100.00
12799;BME280;19250;42.646;26.980;2023-05-19T04:46:09;98868.97;;;17.95;100.00
12799;BME280;19250;42.646;26.980;2023-05-19T04:48:36;98871.44;;;18.17;100.00
12799;BME280;19250;42.646;26.980;2023-05-19T04:51:05;98875.19;;;18.03;100.00
12799;BME280;19250;42.646;26.980;2023-05-19T04:53:32;98881.22;;;18.05;100.00
12799;BME280;19250;42.646;26.980;2023-05-19T04:55:59;98878.72;;;18.10;100.00
12799;BME280;19250;42.646;26.980;2023-05-19T04:58:27;98883.72;;;18.13;100.00
12799;BME280;19250;42.646;26.980;2023-05-19T05:00:54;98899.84;;;18.26;100.00
12799;BME280;19250;42.646;26.980;2023-05-19T05:03:22;98889.06;;;18.32;100.00
12799;BME280;19250;42.646;26.980;2023-05-19T05:05:49;98894.47;;;18.32;100.00
12799;BME280;19250;42.646;26.980;2023-05-19T05:08:16;98893.44;;;18.33;100.00
12799;BME280;19250;42.646;26.980;2023-05-19T05:10:47;98896.38;;;18.19;100.00
12799;BME280;19250;42.646;26.980;2023-05-19T05:13:15;98888.69;;;18.22;100.00
12799;BME280;19250;42.646;26.980;2023-05-19T05:15:43;98889.31;;;18.11;100.00
12799;BME280;19250;42.646;26.980;2023-05-19T05:18:11;98899.22;;;18.43;100.00
12799;BME280;19250;42.646;26.980;2023-05-19T05:20:38;98900.00;;;18.77;100.00
12799;BME280;19250;42.646;26.980;2023-05-19T05:23:05;98899.41;;;18.62;100.00
12799;BME280;19250;42.646;26.980;2023-05-19T05:25:34;98899.84;;;18.59;100.00
12799;BME280;19250;42.646;26.980;2023-05-19T05:28:00;98902.09;;;18.68;100.00
12799;BME280;19250;42.646;26.980;2023-05-19T05:30:29;98905.97;;;18.92;100.00
12799;BME280;19250;42.646;26.980;2023-05-19T05:32:57;98899.50;;;18.93;100.00
12799;BME280;19250;42.646;26.980;2023-05-19T05:35:25;98917.81;;;19.35;100.00
12799;BME280;19250;42.646;26.980;2023-05-19T05:37:51;98913.63;;;19.39;100.00
12799;BME280;19250;42.646;26.980;2023-05-19T05:40:18;98921.81;;;19.26;100.00
12799;BME280;19250;42.646;26.980;2023-05-19T05:42:45;98919.44;;;19.36;100.00
12799;BME280;19250;42.646;26.980;2023-05-19T05:45:12;98918.69;;;19.61;100.00
12799;BME280;19250;42.646;26.980;2023-05-19T05:47:39;98921.34;;;19.98;100.00
12799;BME280;19250;42.646;26.980;2023-05-19T05:50:08;98924.97;;;19.86;100.00
12799;BME280;19250;42.646;26.980;2023-05-19T05:52:35;98920.34;;;19.93;100.00
12799;BME280;19250;42.646;26.980;2023-05-19T05:55:03;98919.63;;;20.04;100.00
12799;BME280;19250;42.646;26.980;2023-05-19T05:57:30;98918.53;;;20.36;100.00
12799;BME280;19250;42.646;26.980;2023-05-19T05:59:59;98926.75;;;20.48;100.00
12799;BME280;19250;42.646;26.980;2023-05-19T06:02:26;98934.84;;;20.73;98.93
12799;BME280;19250;42.646;26.980;2023-05-19T06:04:54;98936.91;;;20.89;93.79
12799;BME280;19250;42.646;26.980;2023-05-19T06:07:22;98947.03;;;20.82;89.93
12799;BME280;19250;42.646;26.980;2023-05-19T06:09:49;98957.25;;;20.80;92.16
12799;BME280;19250;42.646;26.980;2023-05-19T06:12:16;98954.34;;;21.17;90.51
12799;BME280;19250;42.646;26.980;2023-05-19T06:14:43;98962.78;;;21.28;86.92
12799;BME280;19250;42.646;26.980;2023-05-19T06:17:10;98959.13;;;21.52;83.22
12799;BME280;19250;42.646;26.980;2023-05-19T06:19:37;98962.09;;;21.62;83.45
12799;BME280;19250;42.646;26.980;2023-05-19T06:22:04;98970.94;;;21.57;84.31
12799;BME280;19250;42.646;26.980;2023-05-19T06:24:32;98974.06;;;21.73;82.25
12799;BME280;19250;42.646;26.980;2023-05-19T06:26:59;98980.44;;;21.78;83.38
12799;BME280;19250;42.646;26.980;2023-05-19T06:29:25;98975.41;;;22.23;76.87
12799;BME280;19250;42.646;26.980;2023-05-19T06:31:52;98977.03;;;22.24;76.28
12799;BME280;19250;42.646;26.980;2023-05-19T06:34:19;98976.28;;;22.05;75.68
12799;BME280;19250;42.646;26.980;2023-05-19T06:36:46;98983.44;;;22.30;72.98
12799;BME280;19250;42.646;26.980;2023-05-19T06:39:13;98987.41;;;22.68;67.59
12799;BME280;19250;42.646;26.980;2023-05-19T06:41:41;98970.91;;;22.63;64.76
12799;BME280;19250;42.646;26.980;2023-05-19T06:44:08;98979.81;;;22.82;63.78
12799;BME280;19250;42.646;26.980;2023-05-19T06:46:35;98985.81;;;22.49;64.22
12799;BME280;19250;42.646;26.980;2023-05-19T06:49:02;98988.06;;;22.29;62.51
12799;BME280;19250;42.646;26.980;2023-05-19T06:51:29;98991.91;;;22.10;60.17
12799;BME280;19250;42.646;26.980;2023-05-19T06:53:55;98987.66;;;21.84;60.90
12799;BME280;19250;42.646;26.980;2023-05-19T06:56:22;98993.66;;;21.75;59.34
12799;BME280;19250;42.646;26.980;2023-05-19T06:58:51;98990.41;;;21.36;62.73
12799;BME280;19250;42.646;26.980;2023-05-19T07:01:17;98987.72;;;21.36;64.03
12799;BME280;19250;42.646;26.980;2023-05-19T07:03:44;98986.69;;;21.19;70.06
12799;BME280;19250;42.646;26.980;2023-05-19T07:06:11;98989.88;;;21.76;67.43
12799;BME280;19250;42.646;26.980;2023-05-19T07:08:38;98976.88;;;21.96;66.27
12799;BME280;19250;42.646;26.980;2023-05-19T07:11:05;98979.66;;;22.19;65.22
12799;BME280;19250;42.646;26.980;2023-05-19T07:13:32;98975.88;;;22.43;64.43
12799;BME280;19250;42.646;26.980;2023-05-19T07:16:00;98983.22;;;22.54;61.91
12799;BME280;19250;42.646;26.980;2023-05-19T07:18:27;98987.50;;;22.73;59.79
12799;BME280;19250;42.646;26.980;2023-05-19T07:20:56;98977.78;;;22.31;63.00
12799;BME280;19250;42.646;26.980;2023-05-19T07:23:23;98991.16;;;22.56;60.13
12799;BME280;19250;42.646;26.980;2023-05-19T07:25:52;98984.00;;;23.24;56.70
12799;BME280;19250;42.646;26.980;2023-05-19T07:28:19;98988.28;;;23.09;57.10
12799;BME280;19250;42.646;26.980;2023-05-19T07:30:46;98984.41;;;23.84;53.79
12799;BME280;19250;42.646;26.980;2023-05-19T07:33:15;98980.38;;;23.59;54.93
12799;BME280;19250;42.646;26.980;2023-05-19T07:35:42;98980.38;;;24.49;51.74
12799;BME280;19250;42.646;26.980;2023-05-19T07:38:10;98988.88;;;24.52;47.55
12799;BME280;19250;42.646;26.980;2023-05-19T07:40:38;98983.50;;;24.57;45.06
12799;BME280;19250;42.646;26.980;2023-05-19T07:43:05;98985.03;;;24.86;46.53
12799;BME280;19250;42.646;26.980;2023-05-19T07:45:32;98968.78;;;25.13;44.78
12799;BME280;19250;42.646;26.980;2023-05-19T07:48:00;98982.34;;;25.08;45.76
12799;BME280;19250;42.646;26.980;2023-05-19T07:50:29;98929.69;;;24.53;44.38
12799;BME280;19250;42.646;26.980;2023-05-19T07:52:56;98981.91;;;24.61;44.86
12799;BME280;19250;42.646;26.980;2023-05-19T07:55:23;98980.63;;;25.24;45.07
12799;BME280;19250;42.646;26.980;2023-05-19T07:57:50;98987.91;;;24.97;44.97
12799;BME280;19250;42.646;26.980;2023-05-19T08:00:18;98975.53;;;25.11;44.95
12799;BME280;19250;42.646;26.980;2023-05-19T08:02:45;98967.81;;;25.24;45.21
12799;BME280;19250;42.646;26.980;2023-05-19T08:05:12;98980.31;;;25.20;45.58
12799;BME280;19250;42.646;26.980;2023-05-19T08:07:41;98983.00;;;25.37;45.56
12799;BME280;19250;42.646;26.980;2023-05-19T08:10:08;98983.22;;;25.14;46.25
12799;BME280;19250;42.646;26.980;2023-05-19T08:12:36;98972.75;;;25.97;45.20
12799;BME280;19250;42.646;26.980;2023-05-19T08:15:03;98978.78;;;25.99;44.14
12799;BME280;19250;42.646;26.980;2023-05-19T08:17:31;98974.03;;;25.63;45.28
12799;BME280;19250;42.646;26.980;2023-05-19T08:19:58;98974.44;;;25.50;45.93
12799;BME280;19250;42.646;26.980;2023-05-19T08:22:25;98980.63;;;25.67;44.11
12799;BME280;19250;42.646;26.980;2023-05-19T08:24:54;98976.16;;;25.56;45.41
12799;BME280;19250;42.646;26.980;2023-05-19T08:27:21;98974.41;;;26.25;44.60
12799;BME280;19250;42.646;26.980;2023-05-19T08:29:49;98982.53;;;26.52;43.80
12799;BME280;19250;42.646;26.980;2023-05-19T08:32:16;98988.72;;;26.37;42.86
12799;BME280;19250;42.646;26.980;2023-05-19T08:34:43;98998.59;;;25.20;42.44
12799;BME280;19250;42.646;26.980;2023-05-19T08:37:10;98999.78;;;24.52;42.88
12799;BME280;19250;42.646;26.980;2023-05-19T08:39:37;98999.13;;;24.45;44.86
12799;BME280;19250;42.646;26.980;2023-05-19T08:42:06;98989.28;;;24.61;44.65
12799;BME280;19250;42.646;26.980;2023-05-19T08:44:34;98987.00;;;24.74;45.03
12799;BME280;19250;42.646;26.980;2023-05-19T08:47:03;98985.91;;;25.09;44.32
12799;BME280;19250;42.646;26.980;2023-05-19T08:49:34;98981.19;;;24.82;44.77
12799;BME280;19250;42.646;26.980;2023-05-19T08:52:11;98980.38;;;25.04;44.44
12799;BME280;19250;42.646;26.980;2023-05-19T08:54:45;98986.97;;;25.29;44.13
12799;BME280;19250;42.646;26.980;2023-05-19T08:57:14;98989.31;;;25.59;42.51
12799;BME280;19250;42.646;26.980;2023-05-19T08:59:42;98984.31;;;26.31;42.33
12799;BME280;19250;42.646;26.980;2023-05-19T09:02:10;98994.69;;;26.66;41.87
12799;BME280;19250;42.646;26.980;2023-05-19T09:04:39;98984.41;;;26.41;42.15
12799;BME280;19250;42.646;26.980;2023-05-19T09:07:11;98986.28;;;26.36;40.94
12799;BME280;19250;42.646;26.980;2023-05-19T09:09:39;99000.00;;;26.46;40.34
12799;BME280;19250;42.646;26.980;2023-05-19T09:12:08;98986.75;;;26.33;41.42
12799;BME280;19250;42.646;26.980;2023-05-19T09:14:37;98997.75;;;27.17;39.56
12799;BME280;19250;42.646;26.980;2023-05-19T09:17:05;98963.59;;;27.29;39.41
12799;BME280;19250;42.646;26.980;2023-05-19T09:19:32;98998.53;;;27.59;39.28
12799;BME280;19250;42.646;26.980;2023-05-19T09:22:00;98991.69;;;27.04;38.92
12799;BME280;19250;42.646;26.980;2023-05-19T09:24:28;99005.31;;;26.94;38.69
12799;BME280;19250;42.646;26.980;2023-05-19T09:26:55;98994.34;;;26.89;38.27
12799;BME280;19250;42.646;26.980;2023-05-19T09:29:23;99001.69;;;26.52;37.99
12799;BME280;19250;42.646;26.980;2023-05-19T09:31:53;98992.03;;;26.13;38.62
12799;BME280;19250;42.646;26.980;2023-05-19T09:34:25;98996.84;;;26.27;39.58
12799;BME280;19250;42.646;26.980;2023-05-19T09:36:52;98999.78;;;26.21;39.36
12799;BME280;19250;42.646;26.980;2023-05-19T09:39:20;98993.59;;;26.67;38.79
12799;BME280;19250;42.646;26.980;2023-05-19T09:41:51;98990.38;;;26.75;39.34
12799;BME280;19250;42.646;26.980;2023-05-19T09:44:22;98996.41;;;26.77;39.32
12799;BME280;19250;42.646;26.980;2023-05-19T09:46:49;98949.38;;;26.12;40.71
12799;BME280;19250;42.646;26.980;2023-05-19T09:49:22;98983.69;;;26.24;40.62
12799;BME280;19250;42.646;26.980;2023-05-19T09:51:51;98980.41;;;26.59;40.10
12799;BME280;19250;42.646;26.980;2023-05-19T09:54:20;98978.06;;;27.20;38.85
12799;BME280;19250;42.646;26.980;2023-05-19T09:56:56;98988.25;;;28.12;37.19
12799;BME280;19250;42.646;26.980;2023-05-19T09:59:25;98975.56;;;29.11;34.89
12799;BME280;19250;42.646;26.980;2023-05-19T10:01:54;98982.25;;;28.70;36.11
12799;BME280;19250;42.646;26.980;2023-05-19T10:04:23;98983.03;;;28.05;35.43
12799;BME280;19250;42.646;26.980;2023-05-19T10:06:52;98982.34;;;27.00;37.86
12799;BME280;19250;42.646;26.980;2023-05-19T10:09:22;98930.56;;;26.47;38.17
12799;BME280;19250;42.646;26.980;2023-05-19T10:11:53;98985.16;;;26.37;37.89
12799;BME280;19250;42.646;26.980;2023-05-19T10:14:22;98990.97;;;26.45;37.35
12799;BME280;19250;42.646;26.980;2023-05-19T10:16:50;98982.63;;;26.30;38.97
12799;BME280;19250;42.646;26.980;2023-05-19T10:19:19;98976.69;;;26.12;39.24
12799;BME280;19250;42.646;26.980;2023-05-19T10:21:49;98971.69;;;26.30;39.60
12799;BME280;19250;42.646;26.980;2023-05-19T10:24:17;98978.56;;;26.06;40.56
12799;BME280;19250;42.646;26.980;2023-05-19T10:26:49;98954.03;;;25.36;43.29
12799;BME280;19250;42.646;26.980;2023-05-19T10:29:22;98959.69;;;25.78;43.56
12799;BME280;19250;42.646;26.980;2023-05-19T10:31:51;98954.31;;;25.56;41.62
12799;BME280;19250;42.646;26.980;2023-05-19T10:34:33;98949.66;;;25.35;42.43
12799;BME280;19250;42.646;26.980;2023-05-19T10:37:12;98950.47;;;25.35;42.74
12799;BME280;19250;42.646;26.980;2023-05-19T10:39:43;98950.59;;;25.24;43.00
12799;BME280;19250;42.646;26.980;2023-05-19T10:42:15;98953.59;;;25.22;42.07
12799;BME280;19250;42.646;26.980;2023-05-19T10:44:52;98961.84;;;24.67;42.39
12799;BME280;19250;42.646;26.980;2023-05-19T10:47:24;98957.44;;;25.05;41.62
12799;BME280;19250;42.646;26.980;2023-05-19T10:49:51;98956.38;;;25.06;42.21
12799;BME280;19250;42.646;26.980;2023-05-19T10:52:22;98969.16;;;25.65;43.50
12799;BME280;19250;42.646;26.980;2023-05-19T10:54:51;98968.22;;;26.08;44.63
12799;BME280;19250;42.646;26.980;2023-05-19T10:57:20;98976.44;;;26.77;42.55
12799;BME280;19250;42.646;26.980;2023-05-19T10:59:51;98968.44;;;27.89;40.02
12799;BME280;19250;42.646;26.980;2023-05-19T11:02:38;98970.16;;;28.26;38.57
12799;BME280;19250;42.646;26.980;2023-05-19T11:05:07;98971.75;;;28.01;38.99
12799;BME280;19250;42.646;26.980;2023-05-19T11:07:37;98974.78;;;27.18;40.05
12799;BME280;19250;42.646;26.980;2023-05-19T11:10:08;98984.31;;;27.10;40.28
12799;BME280;19250;42.646;26.980;2023-05-19T11:12:40;98992.16;;;26.23;40.13
12799;BME280;19250;42.646;26.980;2023-05-19T11:15:10;99004.22;;;24.92;37.55
12799;BME280;19250;42.646;26.980;2023-05-19T11:17:39;99004.91;;;24.04;38.42
12799;BME280;19250;42.646;26.980;2023-05-19T11:20:08;98979.19;;;24.28;36.53
12799;BME280;19250;42.646;26.980;2023-05-19T11:23:03;98965.06;;;25.03;34.62
12799;BME280;19250;42.646;26.980;2023-05-19T11:25:41;98965.44;;;25.50;35.09
12799;BME280;19250;42.646;26.980;2023-05-19T11:28:10;98967.50;;;26.18;33.43
12799;BME280;19250;42.646;26.980;2023-05-19T11:30:41;98954.19;;;27.10;32.09
12799;BME280;19250;42.646;26.980;2023-05-19T11:33:09;98965.44;;;27.76;31.69
12799;BME280;19250;42.646;26.980;2023-05-19T11:35:36;98973.47;;;28.18;31.33
12799;BME280;19250;42.646;26.980;2023-05-19T11:38:06;98960.31;;;28.65;31.33
12799;BME280;19250;42.646;26.980;2023-05-19T11:40:33;98963.53;;;27.96;32.03
12799;BME280;19250;42.646;26.980;2023-05-19T11:43:00;98957.28;;;28.46;31.36
12799;BME280;19250;42.646;26.980;2023-05-19T11:45:31;98955.63;;;28.30;31.91
12799;BME280;19250;42.646;26.980;2023-05-19T11:47:58;98964.06;;;27.83;32.40
12799;BME280;19250;42.646;26.980;2023-05-19T11:50:26;98956.44;;;28.76;31.18
12799;BME280;19250;42.646;26.980;2023-05-19T11:52:54;98957.81;;;28.79;31.08
12799;BME280;19250;42.646;26.980;2023-05-19T11:55:23;98947.56;;;29.09;30.36
12799;BME280;19250;42.646;26.980;2023-05-19T11:57:56;98943.31;;;30.30;29.30
12799;BME280;19250;42.646;26.980;2023-05-19T12:00:24;98940.06;;;31.33;28.64
12799;BME280;19250;42.646;26.980;2023-05-19T12:02:52;98949.50;;;30.51;29.46
12799;BME280;19250;42.646;26.980;2023-05-19T12:05:20;98930.28;;;29.68;30.22
12799;BME280;19250;42.646;26.980;2023-05-19T12:07:48;98940.28;;;28.09;32.37
12799;BME280;19250;42.646;26.980;2023-05-19T12:10:17;98941.72;;;26.82;34.00
12799;BME280;19250;42.646;26.980;2023-05-19T12:12:47;98938.59;;;26.27;35.00
12799;BME280;19250;42.646;26.980;2023-05-19T12:15:18;98924.97;;;27.26;34.36
12799;BME280;19250;42.646;26.980;2023-05-19T12:17:48;98926.50;;;27.79;34.50
12799;BME280;19250;42.646;26.980;2023-05-19T12:20:16;98915.84;;;28.23;36.73
12799;BME280;19250;42.646;26.980;2023-05-19T12:22:43;98920.16;;;27.48;38.10
12799;BME280;19250;42.646;26.980;2023-05-19T12:25:11;98924.06;;;27.00;39.52
12799;BME280;19250;42.646;26.980;2023-05-19T12:27:38;98930.22;;;26.38;39.66
12799;BME280;19250;42.646;26.980;2023-05-19T12:30:10;98929.22;;;26.18;40.78
12799;BME280;19250;42.646;26.980;2023-05-19T12:32:37;98932.53;;;26.20;41.20
12799;BME280;19250;42.646;26.980;2023-05-19T12:35:04;98931.75;;;25.97;41.44
12799;BME280;19250;42.646;26.980;2023-05-19T12:37:32;98927.88;;;25.93;40.72
12799;BME280;19250;42.646;26.980;2023-05-19T12:40:00;98923.66;;;26.39;40.04
12799;BME280;19250;42.646;26.980;2023-05-19T12:42:28;98926.47;;;26.49;40.27
12799;BME280;19250;42.646;26.980;2023-05-19T12:44:56;98919.72;;;27.09;38.39
12799;BME280;19250;42.646;26.980;2023-05-19T12:47:29;98905.97;;;28.67;35.56
12799;BME280;19250;42.646;26.980;2023-05-19T12:50:00;98921.16;;;29.29;33.81
12799;BME280;19250;42.646;26.980;2023-05-19T12:52:27;98910.09;;;31.26;30.78
12799;BME280;19250;42.646;26.980;2023-05-19T12:54:57;98915.13;;;31.99;30.53